createdAt,value
2023-04-30T00:03:36.472Z,17.43
2023-04-30T00:08:38.827Z,17.62
2023-04-30T00:13:42.531Z,17.60
2023-04-30T00:18:44.743Z,17.49
2023-04-30T00:23:46.962Z,17.35
2023-04-30T00:28:49.185Z,17.40
2023-04-30T00:33:51.439Z,17.44
2023-04-30T00:38:53.578Z,17.43
2023-04-30T00:43:55.739Z,17.41
2023-04-30T00:48:58.007Z,17.46
2023-04-30T00:54:03.554Z,17.34
2023-04-30T00:59:05.859Z,17.45
2023-04-30T01:04:08.056Z,17.30
2023-04-30T01:09:10.876Z,17.35
2023-04-30T01:14:24.364Z,17.22
2023-04-30T01:19:46.349Z,17.29
2023-04-30T01:25:22.701Z,17.32
2023-04-30T01:30:25.906Z,17.15
2023-04-30T01:35:58.583Z,17.25
2023-04-30T01:41:32.634Z,17.06
2023-04-30T01:46:35.466Z,17.15
2023-04-30T01:51:43.048Z,17.12
2023-04-30T01:56:57.080Z,17.16
2023-04-30T02:01:59.505Z,17.07
2023-04-30T02:07:01.951Z,17.09
2023-04-30T02:12:04.792Z,16.86
2023-04-30T02:17:06.991Z,16.79
2023-04-30T02:22:09.190Z,16.70
2023-04-30T02:27:11.392Z,16.71
2023-04-30T02:32:13.631Z,16.57
2023-04-30T02:37:16.555Z,16.65
2023-04-30T02:42:18.784Z,16.72
2023-04-30T02:47:21.070Z,16.59
2023-04-30T02:52:23.231Z,16.58
2023-04-30T02:57:25.419Z,16.47
2023-04-30T03:02:27.653Z,16.52
2023-04-30T03:07:29.900Z,16.34
2023-04-30T03:12:32.062Z,16.01
2023-04-30T03:17:34.359Z,16.05
2023-04-30T03:22:36.630Z,15.99
2023-04-30T03:27:39.565Z,16.06
2023-04-30T03:32:54.501Z,15.79
2023-04-30T03:37:56.805Z,15.78
2023-04-30T03:42:58.969Z,15.85
2023-04-30T03:48:01.180Z,15.76
2023-04-30T03:53:03.698Z,15.58
2023-04-30T03:58:06.042Z,15.40
2023-04-30T04:03:08.468Z,15.51
2023-04-30T04:08:11.077Z,15.49
2023-04-30T04:13:13.500Z,15.46
2023-04-30T04:18:15.718Z,15.56
2023-04-30T04:23:17.880Z,15.83
2023-04-30T04:28:20.105Z,15.95
2023-04-30T04:33:22.272Z,15.96
2023-04-30T04:38:24.743Z,16.14
2023-04-30T04:43:26.958Z,16.06
2023-04-30T04:48:29.056Z,16.02
2023-04-30T04:53:32.915Z,15.85
2023-04-30T04:58:36.436Z,16.00
2023-04-30T05:03:39.020Z,16.20
2023-04-30T05:08:41.246Z,16.42
2023-04-30T05:13:43.358Z,16.79
2023-04-30T05:18:45.590Z,16.99
2023-04-30T05:23:47.850Z,17.16
2023-04-30T05:28:50.034Z,17.34
2023-04-30T05:33:52.328Z,17.44
2023-04-30T05:38:54.628Z,17.29
2023-04-30T05:43:56.895Z,17.21
2023-04-30T05:48:59.137Z,17.21
2023-04-30T05:54:01.241Z,17.37
2023-04-30T05:59:03.425Z,17.38
2023-04-30T06:04:05.652Z,17.70
2023-04-30T06:09:07.960Z,17.79
2023-04-30T06:14:11.004Z,17.78
2023-04-30T06:19:13.360Z,18.02
2023-04-30T06:24:15.759Z,18.08
2023-04-30T06:29:19.530Z,18.20
2023-04-30T06:34:21.694Z,18.48
2023-04-30T06:39:23.906Z,18.61
2023-04-30T06:44:26.086Z,18.66
2023-04-30T06:49:28.395Z,18.77
2023-04-30T06:54:30.789Z,18.82
2023-04-30T06:59:33.127Z,19.06
2023-04-30T07:04:35.341Z,19.26
2023-04-30T07:09:37.935Z,19.27
2023-04-30T07:14:40.697Z,19.60
2023-04-30T07:19:43.028Z,19.59
2023-04-30T07:24:45.144Z,19.56
2023-04-30T07:29:47.237Z,19.41
2023-04-30T07:34:49.517Z,19.61
2023-04-30T07:39:51.781Z,20.14
2023-04-30T07:44:53.950Z,20.33
2023-04-30T07:49:56.405Z,20.26
2023-04-30T07:54:58.705Z,20.33
2023-04-30T08:00:01.426Z,20.23
2023-04-30T08:05:04.414Z,20.31
2023-04-30T08:10:07.096Z,20.41
2023-04-30T08:15:09.313Z,20.79
2023-04-30T08:20:11.800Z,21.16
2023-04-30T08:25:14.243Z,21.16
2023-04-30T08:30:16.782Z,21.58
2023-04-30T08:35:19.115Z,21.73
2023-04-30T08:40:23.514Z,22.00
2023-04-30T08:45:28.306Z,22.05
2023-04-30T08:50:31.948Z,22.18
2023-04-30T08:55:35.127Z,21.88
2023-04-30T09:00:38.932Z,21.94
2023-04-30T09:05:42.145Z,21.88
2023-04-30T09:10:44.452Z,21.98
2023-04-30T09:15:52.584Z,22.29
2023-04-30T09:21:01.923Z,22.47
2023-04-30T09:26:04.622Z,22.58
2023-04-30T09:31:20.812Z,22.51
2023-04-30T09:36:23.146Z,22.78
2023-04-30T09:41:29.537Z,22.88
2023-04-30T09:46:33.931Z,23.09
2023-04-30T09:51:37.556Z,23.12
2023-04-30T09:56:40.106Z,23.24
2023-04-30T10:01:42.684Z,23.61
2023-04-30T10:06:45.653Z,23.90
2023-04-30T10:11:48.118Z,24.11
2023-04-30T10:17:06.381Z,23.91
2023-04-30T10:22:09.792Z,23.79
2023-04-30T10:27:12.686Z,23.95
2023-04-30T10:32:16.062Z,24.24
2023-04-30T10:37:31.713Z,24.56
2023-04-30T10:42:36.355Z,24.66
2023-04-30T10:47:39.712Z,24.64
2023-04-30T10:52:41.965Z,24.76
2023-04-30T10:57:46.907Z,24.70
2023-04-30T11:02:50.146Z,25.06
2023-04-30T11:07:57.703Z,25.31
2023-04-30T11:13:05.285Z,24.83
2023-04-30T11:18:08.869Z,25.28
2023-04-30T11:23:19.627Z,25.42
2023-04-30T11:28:26.698Z,25.69
2023-04-30T11:33:31.030Z,25.70
2023-04-30T11:38:37.490Z,26.00
2023-04-30T11:43:39.621Z,26.15
2023-04-30T11:48:44.313Z,26.54
2023-04-30T11:53:48.136Z,26.90
2023-04-30T11:58:52.286Z,27.16
2023-04-30T12:03:57.859Z,27.12
2023-04-30T12:09:02.091Z,27.37
2023-04-30T12:14:05.620Z,27.61
2023-04-30T12:19:07.989Z,27.86
2023-04-30T12:24:12.156Z,28.13
2023-04-30T12:29:18.709Z,28.30
2023-04-30T12:34:20.992Z,28.40
2023-04-30T12:39:23.190Z,28.64
2023-04-30T12:44:27.904Z,28.79
2023-04-30T12:49:34.051Z,28.89
2023-04-30T12:54:37.368Z,29.07
2023-04-30T13:00:11.969Z,28.75
2023-04-30T13:05:15.891Z,28.46
2023-04-30T13:10:18.955Z,28.11
2023-04-30T13:15:21.193Z,27.58
2023-04-30T13:20:25.245Z,27.35
2023-04-30T13:25:27.526Z,27.20
2023-04-30T13:30:30.188Z,27.58
2023-04-30T13:35:32.386Z,28.04
2023-04-30T13:40:34.562Z,28.10
2023-04-30T13:45:36.764Z,28.26
2023-04-30T13:50:38.929Z,28.20
2023-04-30T13:55:41.339Z,28.16
2023-04-30T14:00:43.918Z,28.68
2023-04-30T14:05:46.995Z,27.96
2023-04-30T14:10:49.217Z,28.42
2023-04-30T14:15:52.194Z,28.73
2023-04-30T14:20:54.356Z,28.96
2023-04-30T14:25:56.793Z,29.36
2023-04-30T14:30:58.963Z,29.79
2023-04-30T14:36:01.584Z,29.96
2023-04-30T14:41:03.745Z,30.02
2023-04-30T14:46:06.034Z,30.31
2023-04-30T14:51:08.635Z,30.43
2023-04-30T14:56:10.911Z,30.68
2023-04-30T15:01:13.138Z,31.14
2023-04-30T15:06:15.869Z,31.67
2023-04-30T15:11:18.515Z,32.38
2023-04-30T15:16:20.764Z,33.74
2023-04-30T15:21:23.204Z,34.98
2023-04-30T15:26:26.296Z,36.37
2023-04-30T15:31:28.607Z,37.24
2023-04-30T15:36:32.284Z,37.15
2023-04-30T15:41:34.498Z,37.11
2023-04-30T15:46:36.808Z,37.53
2023-04-30T15:51:39.058Z,38.23
2023-04-30T15:56:41.607Z,38.57
2023-04-30T16:01:44.138Z,38.30
2023-04-30T16:06:46.996Z,37.92
2023-04-30T16:11:49.699Z,38.02
2023-04-30T16:16:52.568Z,37.31
2023-04-30T16:21:54.990Z,36.78
2023-04-30T16:26:57.919Z,35.80
2023-04-30T16:32:00.240Z,35.07
2023-04-30T16:37:02.518Z,33.15
2023-04-30T16:42:04.732Z,30.96
2023-04-30T16:47:07.288Z,29.49
2023-04-30T16:52:09.466Z,28.63
2023-04-30T16:57:11.638Z,27.87
2023-04-30T17:02:13.965Z,27.26
2023-04-30T17:07:17.817Z,26.71
2023-04-30T17:12:20.086Z,25.79
2023-04-30T17:17:22.378Z,25.34
2023-04-30T17:22:25.368Z,25.65
2023-04-30T17:27:28.193Z,25.31
2023-04-30T17:32:30.833Z,25.08
2023-04-30T17:37:33.610Z,24.42
2023-04-30T17:42:36.099Z,23.86
2023-04-30T17:47:38.622Z,23.93
2023-04-30T17:52:41.169Z,23.59
2023-04-30T17:57:43.483Z,23.74
2023-04-30T18:02:46.296Z,22.81
2023-04-30T18:07:49.325Z,23.06
2023-04-30T18:12:53.022Z,22.94
2023-04-30T18:17:55.665Z,23.28
2023-04-30T18:22:57.933Z,22.98
2023-04-30T18:28:00.551Z,23.02
2023-04-30T18:33:06.067Z,22.71
2023-04-30T18:38:08.563Z,22.63
2023-04-30T18:43:11.075Z,22.45
2023-04-30T18:48:15.569Z,22.48
2023-04-30T18:53:18.946Z,22.23
2023-04-30T18:58:21.193Z,21.93
2023-04-30T19:03:23.482Z,22.08
2023-04-30T19:08:25.849Z,22.04
2023-04-30T19:13:28.142Z,22.05
2023-04-30T19:18:30.307Z,21.99
2023-04-30T19:23:32.692Z,21.78
2023-04-30T19:28:34.876Z,22.03
2023-04-30T19:33:39.829Z,21.99
2023-04-30T19:38:42.036Z,21.78
2023-04-30T19:43:44.228Z,21.76
2023-04-30T19:48:46.837Z,21.78
2023-04-30T19:53:49.132Z,21.70
2023-04-30T19:58:51.763Z,21.65
2023-04-30T20:03:54.175Z,21.40
2023-04-30T20:08:59.767Z,21.35
2023-04-30T20:14:02.086Z,21.39
2023-04-30T20:19:04.574Z,21.34
2023-04-30T20:24:11.351Z,21.36
2023-04-30T20:29:13.620Z,21.37
2023-04-30T20:34:15.815Z,21.24
2023-04-30T20:39:18.959Z,21.23
2023-04-30T20:44:21.092Z,21.04
2023-04-30T20:49:23.472Z,21.06
2023-04-30T20:54:26.196Z,21.16
2023-04-30T20:59:28.398Z,21.07
2023-04-30T21:04:31.461Z,21.12
2023-04-30T21:09:34.938Z,20.99
2023-04-30T21:14:37.871Z,21.06
2023-04-30T21:19:40.077Z,20.90
2023-04-30T21:24:42.872Z,20.78
2023-04-30T21:29:45.064Z,20.41
2023-04-30T21:34:47.191Z,20.76
2023-04-30T21:39:49.327Z,20.54
2023-04-30T21:44:51.528Z,20.51
2023-04-30T21:49:53.906Z,20.41
2023-04-30T21:54:56.426Z,20.38
2023-04-30T22:00:04.230Z,20.26
2023-04-30T22:05:06.868Z,20.22
2023-04-30T22:10:09.199Z,20.17
2023-04-30T22:15:12.528Z,20.03
2023-04-30T22:20:15.011Z,19.87
2023-04-30T22:25:18.171Z,20.12
2023-04-30T22:30:20.456Z,19.91
2023-04-30T22:35:23.358Z,20.09
2023-04-30T22:40:25.669Z,19.97
2023-04-30T22:45:30.553Z,19.95
2023-04-30T22:50:33.001Z,19.76
2023-04-30T22:55:36.322Z,19.92
2023-04-30T23:00:42.151Z,19.98
2023-04-30T23:05:45.015Z,19.81
2023-04-30T23:10:47.988Z,19.49
2023-04-30T23:15:53.583Z,19.45
2023-04-30T23:20:59.181Z,19.49
2023-04-30T23:26:01.936Z,19.64
2023-04-30T23:31:04.351Z,19.42
2023-04-30T23:36:06.945Z,19.58
2023-04-30T23:41:09.498Z,19.57
2023-04-30T23:46:11.854Z,19.60
2023-04-30T23:51:14.130Z,19.52
2023-04-30T23:56:17.558Z,19.44
